Springdale, Montana
Current Conditions -  °F | °C
As of 12:53 PM on Thursday 18 Dec 2014 (Local Time) from KLVM Reporting Station
Few Clouds Few Clouds  
Wind Chill: 29°   Ceiling: Unl
Heat Index: 40°   Visibility: 10mi
Dew Point: 20°   Wind: 28mph
Humidity: 45%   Direction: 220°SW
Pressure: 29.94"   Gusts: 37mph
Location:  45.74°N, 110.22°W
Report Text: KLVM 181953Z AUTO 22024G32KT 10SM FEW120 04/M07 A2994 RMK AO2 PK WND 22032/1947 SLP156 T00441067
Loading
Personal Weather Stations






























Interactive Weather Map New forecast layout! Learn more

10-Day Weather Forecast

Advertisements
Track Severe Weather on mobile